Time;durP1;ratioP1;P1;durP2;ratioP2;P2;SDS_P1;SDS_P2;PMS_P1;PMS_P2;Temp;Humidity;BMP_temperature;BMP_pressure;BME280_temperature;BME280_humidity;BME280_pressure;Samples;Min_cycle;Max_cycle;Signal;HPM_P1;HPM_P2
2021/12/19 00:00:09;;;;;;;26.90;16.53;;;6.30;77.40;6.30;97819.00;;;;5086174;28;20230;-88
2021/12/19 00:02:59;;;;;;;27.57;16.57;;;6.30;77.30;6.30;97821.00;;;;5072329;28;20267;-88
2021/12/19 00:08:38;;;;;;;25.17;15.07;;;6.20;77.40;6.30;97821.00;;;;5092688;28;20183;-88
2021/12/19 00:11:06;;;;;;;23.67;14.67;;;6.30;77.50;6.40;97830.00;;;;5092370;28;20231;-88
2021/12/19 00:13:33;;;;;;;24.10;14.60;;;6.30;77.30;6.30;97832.00;;;;5092425;28;20191;-88
2021/12/19 00:16:00;;;;;;;22.40;13.90;;;6.30;77.20;6.30;97813.00;;;;5091438;28;20238;-88
2021/12/19 00:18:27;;;;;;;22.63;14.10;;;6.30;77.20;6.30;97825.00;;;;5092576;28;20195;-88
2021/12/19 00:20:55;;;;;;;21.03;12.77;;;6.30;77.00;6.30;97818.00;;;;5089766;28;20860;-88
2021/12/19 00:23:22;;;;;;;21.70;12.80;;;6.40;77.00;6.20;97829.00;;;;5091730;28;20196;-87
2021/12/19 00:25:50;;;;;;;20.13;12.33;;;6.30;77.00;6.20;97828.00;;;;5088280;28;20211;-88
2021/12/19 00:28:17;;;;;;;22.20;12.90;;;6.30;76.90;6.20;97817.00;;;;5092054;28;20670;-88
2021/12/19 00:30:44;;;;;;;18.57;12.30;;;6.30;77.10;6.20;97815.00;;;;5091926;28;20562;-88
2021/12/19 00:33:12;;;;;;;18.50;12.10;;;6.30;77.10;6.20;97815.00;;;;5091890;28;20567;-87
2021/12/19 00:35:39;;;;;;;19.07;11.73;;;6.20;77.10;6.20;97798.00;;;;5091316;28;20221;-88
2021/12/19 00:38:08;;;;;;;24.03;13.03;;;6.20;77.90;6.20;97801.00;;;;5091937;28;20191;-87
2021/12/19 00:40:37;;;;;;;23.00;13.47;;;6.20;77.30;6.20;97794.00;;;;5091810;28;20661;-87
2021/12/19 00:43:06;;;;;;;23.17;13.73;;;6.20;77.20;6.10;97789.00;;;;5094805;28;20199;-87
2021/12/19 00:45:36;;;;;;;21.10;13.23;;;6.20;77.40;6.10;97794.00;;;;5095598;28;20211;-88
2021/12/19 00:48:07;;;;;;;24.33;13.60;;;6.20;77.30;6.10;97795.00;;;;5095842;28;20657;-87
2021/12/19 00:50:36;;;;;;;22.50;13.27;;;6.20;77.40;6.10;97795.00;;;;5095727;28;20206;-87
2021/12/19 00:53:04;;;;;;;21.87;13.50;;;6.10;77.30;6.10;97804.00;;;;5096133;28;20286;-88
2021/12/19 00:55:34;;;;;;;22.07;13.70;;;6.10;77.40;6.10;97798.00;;;;5083025;28;20240;-87
2021/12/19 00:58:01;;;;;;;24.33;13.90;;;6.10;77.30;6.00;97786.00;;;;5076140;28;20230;-88
2021/12/19 01:00:33;;;;;;;24.07;13.70;;;6.10;77.50;6.00;97785.00;;;;5093487;28;20217;-87
2021/12/19 01:03:01;;;;;;;21.83;12.60;;;6.10;77.30;6.00;97796.00;;;;5096557;28;20183;-87
2021/12/19 01:05:38;;;;;;;22.67;12.63;;;6.10;77.30;5.90;97791.00;;;;5095732;28;20211;-87
2021/12/19 01:08:06;;;;;;;21.90;12.60;;;6.00;77.40;5.90;97786.00;;;;5096095;28;20187;-87
2021/12/19 01:10:36;;;;;;;24.27;13.43;;;6.10;77.60;5.90;97788.00;;;;5096288;28;20221;-87
2021/12/19 01:13:04;;;;;;;23.07;13.23;;;6.00;77.50;5.90;97786.00;;;;5096264;28;20619;-87
2021/12/19 01:15:32;;;;;;;23.87;13.73;;;6.00;77.70;5.90;97776.00;;;;5095420;28;20297;-87
2021/12/19 01:17:59;;;;;;;23.43;13.23;;;6.00;77.80;5.90;97778.00;;;;5076206;28;20555;-87
2021/12/19 01:20:32;;;;;;;21.67;13.57;;;6.00;77.70;5.90;97778.00;;;;5082574;28;20202;-87
2021/12/19 01:23:00;;;;;;;23.77;14.33;;;6.00;77.80;5.90;97782.00;;;;5073970;28;20651;-87
2021/12/19 01:25:27;;;;;;;25.60;14.63;;;6.00;77.90;5.90;97783.00;;;;5075140;28;20301;-87
2021/12/19 01:27:56;;;;;;;24.37;13.57;;;6.00;77.90;5.90;97788.00;;;;5075525;28;20640;-87
2021/12/19 01:30:23;;;;;;;29.23;14.93;;;6.00;77.90;5.90;97798.00;;;;5075193;28;20285;-87
2021/12/19 01:32:51;;;;;;;27.03;14.70;;;6.00;78.00;5.90;97794.00;;;;5078483;28;20228;-87
2021/12/19 01:35:21;;;;;;;28.20;14.20;;;6.00;78.70;5.90;97785.00;;;;5080182;28;20229;-87
2021/12/19 01:37:48;;;;;;;32.47;15.07;;;6.00;78.10;5.90;97794.00;;;;5099840;28;20191;-87
2021/12/19 01:40:19;;;;;;;25.77;15.07;;;6.00;78.10;6.00;97788.00;;;;5092349;28;20286;-87
2021/12/19 01:42:50;;;;;;;23.57;13.80;;;6.00;78.20;6.00;97794.00;;;;5095821;28;20200;-87
2021/12/19 01:45:27;;;;;;;23.17;13.73;;;6.00;78.30;6.00;97783.00;;;;5095180;28;20208;-87
2021/12/19 01:47:56;;;;;;;24.37;13.63;;;6.00;78.10;6.00;97790.00;;;;5088047;28;20274;-88
2021/12/19 01:50:25;;;;;;;26.50;13.83;;;6.20;78.20;6.00;97796.00;;;;5095447;28;22408;-88
2021/12/19 01:52:52;;;;;;;25.83;14.70;;;6.10;78.20;6.00;97797.00;;;;5095140;28;20221;-88
2021/12/19 01:55:20;;;;;;;26.30;15.53;;;6.00;78.10;6.00;97789.00;;;;5094157;28;20710;-88
2021/12/19 01:57:48;;;;;;;22.37;13.97;;;6.00;78.10;6.00;97779.00;;;;5087246;28;20188;-88
2021/12/19 02:00:27;;;;;;;26.23;14.30;;;6.00;78.20;6.00;97788.00;;;;5084894;28;20283;-88
2021/12/19 02:02:55;;;;;;;26.17;13.67;;;6.20;78.40;6.00;97796.00;;;;5088425;28;20195;-88
2021/12/19 02:05:23;;;;;;;26.13;14.63;;;6.10;78.50;6.00;97802.00;;;;5103975;28;20216;-87
2021/12/19 02:07:52;;;;;;;28.20;13.93;;;6.10;78.50;6.00;97788.00;;;;5074670;28;20270;-87
2021/12/19 02:10:21;;;;;;;22.53;13.30;;;6.10;78.50;6.10;97786.00;;;;5076571;28;20204;-86
2021/12/19 02:12:51;;;;;;;23.67;13.07;;;6.10;78.40;6.00;97770.00;;;;5102945;28;20688;-88
2021/12/19 02:15:21;;;;;;;22.13;13.03;;;6.00;78.30;6.00;97780.00;;;;5090864;28;20224;-87
2021/12/19 02:17:54;;;;;;;22.77;12.73;;;6.10;78.30;6.00;97769.00;;;;5093599;28;20570;-88
2021/12/19 02:20:24;;;;;;;20.13;12.50;;;6.10;78.30;6.00;97775.00;;;;5094236;28;20632;-88
2021/12/19 02:22:51;;;;;;;21.03;12.13;;;6.10;78.30;5.90;97766.00;;;;5079274;28;20196;-88
2021/12/19 02:25:18;;;;;;;19.03;12.03;;;6.10;78.40;6.00;97772.00;;;;5085046;28;20314;-87
2021/12/19 02:27:45;;;;;;;19.23;11.27;;;6.10;78.50;6.00;97765.00;;;;5084021;28;20196;-87
2021/12/19 02:30:14;;;;;;;20.47;12.37;;;6.10;78.50;6.00;97774.00;;;;5089893;28;20282;-87
2021/12/19 02:32:42;;;;;;;21.37;12.47;;;6.10;78.50;6.00;97762.00;;;;5094276;28;20219;-88
2021/12/19 02:35:15;;;;;;;18.27;10.83;;;6.10;78.50;5.90;97765.00;;;;5093501;28;20249;-87
2021/12/19 02:38:14;;;;;;;17.87;10.43;;;6.10;78.50;5.90;97760.00;;;;5094805;28;20207;-87
2021/12/19 02:48:56;;;;;;;19.70;11.03;;;6.00;78.70;5.80;97753.00;;;;5094112;28;20179;-88
2021/12/19 02:51:29;;;;;;;17.73;11.30;;;6.00;78.60;5.80;97746.00;;;;5094046;28;20265;-88
2021/12/19 02:54:00;;;;;;;17.33;10.87;;;6.00;78.90;5.80;97748.00;;;;5092093;28;20206;-88
2021/12/19 02:56:28;;;;;;;18.93;10.23;;;5.90;79.00;5.80;97741.00;;;;5094107;28;20203;-88
2021/12/19 02:58:55;;;;;;;19.67;11.53;;;5.90;79.20;5.80;97744.00;;;;5094053;28;20224;-88
2021/12/19 03:01:22;;;;;;;18.50;10.63;;;5.90;79.20;5.80;97739.00;;;;5093299;28;20671;-87
2021/12/19 03:03:50;;;;;;;19.60;10.87;;;5.80;79.10;5.80;97739.00;;;;5093978;28;20197;-88
2021/12/19 03:06:17;;;;;;;17.47;10.97;;;5.90;79.30;5.80;97735.00;;;;5093580;28;20201;-87
2021/12/19 03:08:47;;;;;;;17.30;10.97;;;5.90;79.30;5.90;97723.00;;;;5094254;28;20215;-87
2021/12/19 03:11:50;;;;;;;16.43;10.70;;;5.90;79.50;5.90;97724.00;;;;5093482;28;20191;-87
2021/12/19 03:19:54;;;;;;;17.13;10.23;;;5.90;79.50;5.80;97727.00;;;;5050571;28;20193;-87
2021/12/19 03:22:21;;;;;;;16.23;10.70;;;5.90;79.40;5.80;97749.00;;;;5066681;28;20207;-87
2021/12/19 03:24:48;;;;;;;22.70;11.60;;;5.90;79.50;5.80;97749.00;;;;5090214;28;20301;-87
2021/12/19 03:27:17;;;;;;;16.60;10.37;;;5.90;79.60;5.80;97735.00;;;;5093620;28;20195;-87
2021/12/19 03:29:44;;;;;;;19.97;10.80;;;5.90;79.70;5.80;97728.00;;;;5090712;28;20203;-88
2021/12/19 03:32:11;;;;;;;19.93;11.07;;;5.90;79.90;5.90;97734.00;;;;5089961;28;20225;-87
2021/12/19 03:34:39;;;;;;;16.57;10.77;;;5.90;80.00;5.90;97721.00;;;;5093787;28;20222;-87
2021/12/19 03:37:09;;;;;;;17.70;11.07;;;5.90;80.00;5.90;97714.00;;;;5101452;28;20226;-88
2021/12/19 03:39:54;;;;;;;19.33;10.97;;;5.90;80.10;5.90;97710.00;;;;5086866;28;20668;-87
2021/12/19 03:42:25;;;;;;;16.40;10.77;;;5.90;80.10;5.90;97714.00;;;;5073121;28;20180;-87
2021/12/19 03:44:52;;;;;;;16.97;11.00;;;6.00;80.20;5.90;97708.00;;;;5089027;28;20219;-88
2021/12/19 03:47:19;;;;;;;18.13;10.80;;;6.00;80.20;5.90;97698.00;;;;5094828;28;20277;-88
2021/12/19 03:49:46;;;;;;;17.67;11.13;;;6.00;80.10;6.00;97690.00;;;;5072944;28;20293;-88
2021/12/19 03:52:14;;;;;;;18.30;10.43;;;6.00;80.20;6.00;97688.00;;;;5087845;28;20246;-88
2021/12/19 03:54:41;;;;;;;19.10;10.23;;;6.00;80.20;6.00;97692.00;;;;5086559;28;20681;-88
2021/12/19 03:57:09;;;;;;;18.57;11.30;;;6.00;80.20;6.00;97687.00;;;;5072713;28;20196;-88
2021/12/19 03:59:38;;;;;;;21.87;11.50;;;6.00;80.20;6.00;97684.00;;;;5082303;28;20687;-88
2021/12/19 04:02:05;;;;;;;16.83;10.80;;;6.00;80.30;6.00;97684.00;;;;5096258;28;20199;-87
2021/12/19 04:04:36;;;;;;;20.33;11.63;;;6.30;80.60;6.00;97685.00;;;;5092747;28;20272;-88
2021/12/19 04:07:04;;;;;;;19.17;11.60;;;6.00;80.50;6.00;97678.00;;;;5092144;28;20192;-87
2021/12/19 04:09:32;;;;;;;28.87;15.80;;;6.00;80.50;6.00;97686.00;;;;5100316;28;20198;-88
2021/12/19 04:11:59;;;;;;;24.10;13.17;;;6.10;80.50;6.00;97682.00;;;;5080708;28;20220;-88
2021/12/19 04:14:26;;;;;;;26.50;15.73;;;6.10;80.30;6.00;97686.00;;;;5072051;28;20216;-88
2021/12/19 04:16:54;;;;;;;25.00;13.03;;;6.10;80.10;6.00;97684.00;;;;5091692;28;20184;-88
2021/12/19 04:19:23;;;;;;;22.23;12.07;;;6.10;80.20;6.00;97677.00;;;;5096439;28;20195;-88
2021/12/19 04:21:50;;;;;;;22.20;11.93;;;6.10;80.10;6.00;97667.00;;;;5094127;28;20567;-88
2021/12/19 04:24:17;;;;;;;23.13;12.67;;;5.60;79.80;6.00;97674.00;;;;5093236;28;20258;-87
2021/12/19 04:26:44;;;;;;;21.73;12.47;;;6.10;80.20;6.00;97672.00;;;;5076456;28;20573;-88
2021/12/19 04:29:11;;;;;;;22.17;12.20;;;6.10;80.30;6.10;97662.00;;;;5076588;28;20200;-88
2021/12/19 04:31:40;;;;;;;21.83;12.57;;;6.10;80.40;6.10;97659.00;;;;5076291;28;20722;-87
2021/12/19 04:34:08;;;;;;;20.60;12.37;;;6.10;80.40;6.10;97653.00;;;;5082610;28;20215;-87
2021/12/19 04:36:39;;;;;;;20.97;11.73;;;6.10;80.40;6.10;97661.00;;;;5095227;28;20195;-88
2021/12/19 04:39:33;;;;;;;17.40;11.13;;;6.10;80.40;6.10;97656.00;;;;5077032;28;20180;-88
2021/12/19 04:43:03;;;;;;;17.00;10.40;;;6.10;80.50;6.10;97639.00;;;;5093398;28;20203;-88
2021/12/19 04:51:12;;;;;;;18.07;10.57;;;6.10;80.40;6.10;97639.00;;;;5096814;28;20183;-87
2021/12/19 04:53:53;;;;;;;20.67;12.10;;;6.10;80.40;6.10;97647.00;;;;5085969;28;20219;-88
2021/12/19 04:56:34;;;;;;;17.83;10.50;;;6.10;80.40;6.10;97652.00;;;;5092628;28;20206;-87
2021/12/19 04:59:37;;;;;;;16.90;10.27;;;6.30;80.50;6.10;97648.00;;;;5095882;28;20644;-87
2021/12/19 05:02:14;;;;;;;18.63;10.53;;;6.10;80.30;6.10;97660.00;;;;5098222;28;20684;-87
2021/12/19 05:05:17;;;;;;;18.00;10.23;;;6.10;80.40;6.10;97658.00;;;;5096924;28;20211;-88
2021/12/19 05:15:55;;;;;;;12.63;7.90;;;6.10;80.20;6.00;97654.00;;;;5095416;28;20736;-87
2021/12/19 05:18:26;;;;;;;13.43;8.27;;;6.00;80.20;6.00;97652.00;;;;5098308;28;20195;-86
2021/12/19 05:20:57;;;;;;;13.17;7.83;;;6.10;80.20;6.00;97647.00;;;;5097530;28;20194;-87
2021/12/19 05:23:35;;;;;;;14.40;9.23;;;6.10;80.30;6.00;97647.00;;;;5095564;28;20230;-87
2021/12/19 05:26:02;;;;;;;16.47;8.73;;;6.10;80.30;6.00;97644.00;;;;5091827;28;20302;-87
2021/12/19 05:28:29;;;;;;;13.70;8.53;;;6.20;80.50;6.00;97642.00;;;;5091226;28;20188;-88
2021/12/19 05:30:57;;;;;;;12.23;7.90;;;6.10;80.30;6.00;97638.00;;;;5084318;28;20192;-87
2021/12/19 05:33:24;;;;;;;13.47;7.97;;;6.10;80.30;6.00;97634.00;;;;5089729;28;20222;-87
2021/12/19 05:36:08;;;;;;;14.00;8.70;;;6.10;80.20;6.00;97633.00;;;;5092640;28;20225;-87
2021/12/19 05:44:15;;;;;;;16.00;8.90;;;6.00;80.40;5.90;97637.00;;;;5095037;28;20215;-87
2021/12/19 05:46:43;;;;;;;16.00;8.83;;;6.10;80.40;5.90;97636.00;;;;5095190;28;20600;-88
2021/12/19 05:49:10;;;;;;;18.03;9.30;;;6.00;80.30;5.90;97648.00;;;;5093947;28;20672;-87
2021/12/19 05:51:39;;;;;;;15.73;9.07;;;6.00;80.50;5.90;97632.00;;;;5095013;28;20217;-88
2021/12/19 05:54:09;;;;;;;15.40;9.30;;;6.00;80.50;5.90;97629.00;;;;5094703;28;20231;-88
2021/12/19 05:56:37;;;;;;;13.73;8.77;;;6.00;80.60;5.90;97631.00;;;;5095511;28;20175;-87
2021/12/19 05:59:04;;;;;;;18.13;9.90;;;5.90;80.60;5.90;97627.00;;;;5095070;28;20202;-87
2021/12/19 06:01:31;;;;;;;16.27;9.70;;;5.90;80.60;5.90;97627.00;;;;5094959;28;20199;-87
2021/12/19 06:03:58;;;;;;;17.23;9.33;;;5.90;80.50;5.90;97622.00;;;;5094224;28;20199;-87
2021/12/19 06:06:26;;;;;;;15.63;9.80;;;5.90;80.60;5.90;97620.00;;;;5074365;28;20588;-87
2021/12/19 06:08:53;;;;;;;22.53;9.20;;;6.00;80.60;5.80;97631.00;;;;5089879;28;20700;-87
2021/12/19 06:11:21;;;;;;;16.43;9.57;;;5.90;80.60;5.90;97634.00;;;;5093974;28;20666;-87
2021/12/19 06:13:48;;;;;;;15.33;9.10;;;5.90;80.60;5.90;97635.00;;;;5094305;28;20703;-87
2021/12/19 06:16:15;;;;;;;15.70;9.20;;;5.90;80.50;5.90;97626.00;;;;5093605;28;20252;-87
2021/12/19 06:18:42;;;;;;;12.50;8.17;;;5.90;80.50;5.90;97630.00;;;;5094082;28;20200;-87
2021/12/19 06:21:10;;;;;;;16.17;8.77;;;5.90;80.60;5.90;97623.00;;;;5087618;28;20200;-88
2021/12/19 06:23:39;;;;;;;15.70;8.90;;;5.90;80.80;5.90;97620.00;;;;5073678;28;20214;-87
2021/12/19 06:26:10;;;;;;;14.13;8.37;;;5.80;80.70;5.90;97623.00;;;;5092261;28;20710;-87
2021/12/19 06:28:39;;;;;;;14.27;8.37;;;6.80;82.10;5.90;97627.00;;;;5094653;28;20265;-87
2021/12/19 06:31:06;;;;;;;12.33;7.90;;;6.00;80.80;5.80;97628.00;;;;5094472;28;20581;-88
2021/12/19 06:33:33;;;;;;;13.53;8.03;;;5.90;80.60;5.80;97614.00;;;;5093727;28;20219;-88
2021/12/19 06:36:00;;;;;;;13.53;8.03;;;5.90;80.70;5.80;97591.00;;;;5093720;28;20712;-88
2021/12/19 06:38:27;;;;;;;12.83;7.47;;;5.90;80.60;5.80;97585.00;;;;5087396;28;20649;-88
2021/12/19 06:40:55;;;;;;;17.03;11.83;;;5.90;80.60;5.80;97593.00;;;;5093405;28;20187;-87
2021/12/19 06:43:22;;;;;;;17.53;10.23;;;5.80;80.70;5.80;97583.00;;;;5094325;28;20206;-87
2021/12/19 06:45:50;;;;;;;14.07;8.40;;;5.90;80.70;5.80;97591.00;;;;5093302;28;20230;-87
2021/12/19 06:48:19;;;;;;;12.47;7.73;;;5.80;80.60;5.70;97585.00;;;;5094602;28;20286;-88
2021/12/19 06:50:46;;;;;;;11.33;7.63;;;5.80;80.50;5.70;97591.00;;;;5093684;28;20221;-87
2021/12/19 06:53:13;;;;;;;12.33;7.60;;;5.80;80.60;5.60;97584.00;;;;5093824;28;20222;-87
2021/12/19 06:55:41;;;;;;;10.83;7.03;;;5.80;80.50;5.60;97588.00;;;;5079339;28;20231;-87
2021/12/19 06:58:08;;;;;;;11.87;7.50;;;5.80;80.60;5.60;97590.00;;;;5091022;28;20661;-87
2021/12/19 07:00:35;;;;;;;11.43;6.63;;;5.70;80.50;5.60;97601.00;;;;5094148;28;20199;-88
2021/12/19 07:03:03;;;;;;;12.00;6.97;;;5.70;80.50;5.60;97602.00;;;;5094971;28;20228;-87
2021/12/19 07:05:30;;;;;;;11.07;7.13;;;5.70;80.60;5.60;97607.00;;;;5098233;28;20599;-88
2021/12/19 07:07:57;;;;;;;10.73;7.03;;;5.70;80.80;5.60;97603.00;;;;5092725;28;20580;-87
2021/12/19 07:10:24;;;;;;;12.23;7.67;;;5.70;80.90;5.70;97601.00;;;;5084222;28;20219;-87
2021/12/19 07:12:51;;;;;;;10.13;6.13;;;5.70;80.80;5.70;97598.00;;;;5093351;28;20696;-87
2021/12/19 07:15:18;;;;;;;11.30;6.07;;;5.80;80.70;5.70;97589.00;;;;5073197;28;20205;-87
2021/12/19 07:17:46;;;;;;;11.70;6.90;;;5.70;80.60;5.70;97593.00;;;;5092754;28;20187;-87
2021/12/19 07:20:14;;;;;;;9.67;6.07;;;5.80;80.70;5.60;97587.00;;;;5082491;28;20544;-87
2021/12/19 07:22:42;;;;;;;10.63;6.50;;;5.90;80.50;5.60;97584.00;;;;5081591;28;20668;-87
2021/12/19 07:25:10;;;;;;;9.13;6.10;;;5.80;80.50;5.60;97583.00;;;;5072844;28;20604;-87
2021/12/19 07:27:37;;;;;;;9.97;6.50;;;5.80;80.40;5.60;97578.00;;;;5072666;28;20200;-87
2021/12/19 07:30:06;;;;;;;11.10;6.30;;;5.80;80.30;5.60;97578.00;;;;5090059;28;20199;-87
2021/12/19 07:32:34;;;;;;;9.70;6.23;;;5.80;80.40;5.60;97570.00;;;;5111021;28;20199;-87
2021/12/19 07:35:01;;;;;;;12.53;6.93;;;5.80;81.10;5.70;97568.00;;;;5114205;28;20699;-87
2021/12/19 07:37:30;;;;;;;12.27;7.30;;;5.80;80.60;5.70;97564.00;;;;5116625;28;20660;-87
2021/12/19 07:40:09;;;;;;;10.57;6.60;;;5.80;80.50;5.70;97571.00;;;;5118297;28;20207;-86
2021/12/19 07:42:36;;;;;;;9.03;5.90;;;5.80;80.50;5.70;97572.00;;;;5099764;28;20191;-86
2021/12/19 07:45:04;;;;;;;10.67;6.37;;;5.80;80.60;5.70;97564.00;;;;5090162;28;20219;-86
2021/12/19 07:47:31;;;;;;;9.10;5.60;;;5.80;80.60;5.80;97571.00;;;;5083097;28;20199;-86
2021/12/19 07:49:58;;;;;;;8.57;5.67;;;5.80;80.70;5.80;97563.00;;;;5082043;28;20646;-87
2021/12/19 07:52:25;;;;;;;9.30;5.47;;;5.80;80.70;5.90;97569.00;;;;5078789;28;20235;-90
2021/12/19 07:54:53;;;;;;;9.33;5.83;;;5.80;80.70;5.90;97562.00;;;;5087956;28;20401;-86
2021/12/19 07:57:20;;;;;;;9.43;5.73;;;5.90;80.60;6.00;97577.00;;;;5096230;28;20191;-86
2021/12/19 07:59:47;;;;;;;10.40;6.37;;;6.00;81.30;6.00;97561.00;;;;5088469;28;20271;-86
2021/12/19 08:02:14;;;;;;;11.00;6.03;;;5.90;80.30;5.90;97568.00;;;;5097267;28;20195;-85
2021/12/19 08:04:41;;;;;;;8.50;5.67;;;5.90;80.00;5.90;97566.00;;;;5096058;28;20211;-86
2021/12/19 08:07:11;;;;;;;10.13;6.00;;;6.00;80.00;5.90;97555.00;;;;5099859;28;20195;-86
2021/12/19 08:09:47;;;;;;;10.40;6.20;;;6.00;80.00;5.90;97564.00;;;;5106530;28;20192;-86
2021/12/19 08:12:14;;;;;;;10.30;5.80;;;6.00;80.20;6.00;97556.00;;;;5080701;28;20200;-87
2021/12/19 08:14:41;;;;;;;9.23;5.50;;;6.00;80.10;6.00;97566.00;;;;5076643;28;20232;-86
2021/12/19 08:17:08;;;;;;;10.80;5.77;;;6.00;80.00;6.00;97560.00;;;;5089356;28;20273;-86
2021/12/19 08:19:35;;;;;;;9.93;6.03;;;6.00;80.00;6.00;97553.00;;;;5098174;28;20195;-87
2021/12/19 08:22:02;;;;;;;11.37;6.37;;;6.10;80.10;6.10;97555.00;;;;5096653;28;20258;-86
2021/12/19 08:24:29;;;;;;;11.43;5.90;;;6.10;80.20;6.10;97546.00;;;;5098149;28;20223;-85
2021/12/19 08:26:56;;;;;;;12.13;6.70;;;6.10;80.20;6.10;97538.00;;;;5094685;28;20252;-86
2021/12/19 08:29:24;;;;;;;10.33;6.27;;;6.10;80.30;6.20;97530.00;;;;5095335;28;20195;-84
2021/12/19 08:31:51;;;;;;;12.20;6.60;;;6.10;80.20;6.20;97533.00;;;;5098139;28;20218;-85
2021/12/19 08:34:19;;;;;;;10.30;6.03;;;6.10;80.20;6.20;97536.00;;;;5083792;28;20229;-83
2021/12/19 08:36:46;;;;;;;12.70;6.30;;;6.10;80.30;6.10;97532.00;;;;5094688;28;20225;-84
2021/12/19 08:39:14;;;;;;;8.97;5.47;;;6.10;80.20;6.10;97531.00;;;;5093045;28;20188;-86
2021/12/19 08:41:42;;;;;;;10.87;5.47;;;6.70;80.60;6.10;97535.00;;;;5094016;28;20199;-86
2021/12/19 08:44:09;;;;;;;10.33;6.03;;;6.10;80.00;6.10;97544.00;;;;5081849;28;20586;-86
2021/12/19 08:46:40;;;;;;;9.87;5.60;;;6.10;80.00;6.10;97547.00;;;;5083515;28;20653;-84
2021/12/19 08:49:09;;;;;;;10.70;6.07;;;6.10;80.20;6.10;97542.00;;;;5082376;28;20245;-86
2021/12/19 08:51:37;;;;;;;11.60;5.70;;;6.00;80.10;6.10;97553.00;;;;5086050;28;20207;-84
2021/12/19 08:54:05;;;;;;;11.03;5.93;;;6.10;80.10;6.10;97537.00;;;;5082796;28;20224;-81
2021/12/19 08:56:32;;;;;;;11.90;6.20;;;6.10;80.10;6.10;97539.00;;;;5080316;28;20208;-86
2021/12/19 08:59:00;;;;;;;10.70;5.83;;;6.10;80.20;6.10;97539.00;;;;5086137;28;20209;-86
2021/12/19 09:01:28;;;;;;;10.67;6.03;;;6.10;80.20;6.20;97538.00;;;;5082719;28;20191;-85
2021/12/19 09:03:57;;;;;;;9.93;5.10;;;6.10;80.20;6.20;97550.00;;;;5091151;28;20195;-86
2021/12/19 09:06:24;;;;;;;10.63;5.10;;;6.10;80.10;6.20;97543.00;;;;5080726;28;20203;-85
2021/12/19 09:08:51;;;;;;;10.40;6.50;;;6.10;80.20;6.20;97540.00;;;;5089238;28;20198;-86
2021/12/19 09:11:18;;;;;;;11.93;6.27;;;6.20;80.20;6.20;97538.00;;;;5089905;28;20268;-86
2021/12/19 09:13:45;;;;;;;10.67;6.10;;;6.20;80.20;6.20;97536.00;;;;5098119;28;20223;-86
2021/12/19 09:16:12;;;;;;;13.13;7.10;;;6.20;80.20;6.30;97534.00;;;;5088533;28;20203;-86
2021/12/19 09:18:39;;;;;;;14.83;7.03;;;6.20;80.20;6.30;97530.00;;;;5088925;28;20210;-87
2021/12/19 09:21:08;;;;;;;11.07;6.43;;;6.20;80.00;6.30;97533.00;;;;5079985;28;20210;-86
2021/12/19 09:23:35;;;;;;;11.37;6.03;;;6.20;80.10;6.40;97534.00;;;;5092003;28;20199;-86
2021/12/19 09:26:02;;;;;;;10.57;5.70;;;6.20;80.30;6.40;97533.00;;;;5090842;28;20223;-86
2021/12/19 09:28:29;;;;;;;12.13;6.57;;;6.30;80.40;6.40;97527.00;;;;5096152;28;20223;-87
2021/12/19 09:30:56;;;;;;;13.83;7.57;;;6.30;80.40;6.40;97519.00;;;;5092680;28;20195;-84
2021/12/19 09:33:23;;;;;;;10.63;6.23;;;6.40;80.40;6.40;97519.00;;;;5086545;28;20234;-86
2021/12/19 09:35:50;;;;;;;12.80;6.87;;;6.30;80.20;6.40;97516.00;;;;5082098;28;20243;-87
2021/12/19 09:38:20;;;;;;;11.10;6.23;;;6.30;80.20;6.50;97511.00;;;;5082936;28;20200;-86
2021/12/19 09:40:48;;;;;;;11.57;6.57;;;6.30;80.10;6.40;97518.00;;;;5085740;28;20238;-85
2021/12/19 09:43:41;;;;;;;11.70;6.80;;;6.30;80.00;6.50;97514.00;;;;5081385;28;20204;-85
2021/12/19 09:46:12;;;;;;;11.43;7.03;;;6.30;79.90;6.50;97503.00;;;;5092624;28;20221;-85
2021/12/19 09:48:41;;;;;;;11.47;6.57;;;6.30;79.90;6.50;97489.00;;;;5095226;28;20188;-85
2021/12/19 09:51:10;;;;;;;11.27;6.17;;;6.40;80.00;6.50;97483.00;;;;5083556;28;20701;-85
2021/12/19 09:53:40;;;;;;;13.87;7.00;;;6.30;79.90;6.50;97482.00;;;;5093356;28;20218;-85
2021/12/19 09:56:07;;;;;;;13.97;6.70;;;6.40;79.80;6.50;97474.00;;;;5094448;28;20223;-85
2021/12/19 09:58:36;;;;;;;12.90;7.07;;;6.40;79.80;6.50;97468.00;;;;5104807;28;20206;-85
2021/12/19 10:01:07;;;;;;;11.43;6.03;;;6.40;79.70;6.50;97458.00;;;;5101858;28;20198;-85
2021/12/19 10:03:36;;;;;;;9.97;6.50;;;6.40;79.50;6.40;97438.00;;;;5085355;28;20191;-85
2021/12/19 10:06:20;;;;;;;12.23;6.13;;;6.40;79.40;6.40;97431.00;;;;5099119;28;20215;-85
2021/12/19 10:09:07;;;;;;;13.57;7.07;;;6.40;79.50;6.40;97424.00;;;;5101282;28;20183;-84
2021/12/19 10:11:47;;;;;;;16.20;7.80;;;6.40;79.40;6.40;97422.00;;;;5095845;28;20187;-84
2021/12/19 10:14:31;;;;;;;13.37;7.13;;;6.40;79.30;6.40;97414.00;;;;5095192;28;20286;-85
2021/12/19 10:17:01;;;;;;;13.30;7.40;;;6.40;79.10;6.40;97416.00;;;;5097237;28;20200;-84
2021/12/19 10:19:43;;;;;;;12.87;6.93;;;6.40;79.30;6.40;97404.00;;;;5114380;28;20196;-84
2021/12/19 10:22:29;;;;;;;12.00;7.10;;;6.40;79.40;6.40;97400.00;;;;5096099;28;20730;-85
2021/12/19 10:25:14;;;;;;;9.93;6.03;;;6.40;79.30;6.50;97401.00;;;;5083825;28;20225;-85
2021/12/19 10:27:43;;;;;;;12.57;6.70;;;6.40;79.30;6.50;97392.00;;;;5107884;28;20184;-85
2021/12/19 10:30:18;;;;;;;17.47;6.47;;;6.40;79.20;6.50;97396.00;;;;5089041;28;20618;-88
2021/12/19 10:32:55;;;;;;;11.23;6.27;;;6.50;79.50;6.50;97403.00;;;;5104685;28;20248;-80
2021/12/19 10:35:27;;;;;;;10.27;6.60;;;6.50;81.00;6.60;97403.00;;;;5098972;28;20293;-83
2021/12/19 10:37:57;;;;;;;10.70;5.73;;;6.60;81.00;6.70;97391.00;;;;5096079;28;20191;-83
2021/12/19 10:40:26;;;;;;;9.57;6.00;;;6.60;80.60;6.70;97390.00;;;;5096195;28;20196;-82
2021/12/19 10:42:58;;;;;;;9.83;6.43;;;6.60;80.00;6.80;97386.00;;;;5089548;28;20555;-82
2021/12/19 10:45:32;;;;;;;10.00;6.47;;;6.70;79.80;6.80;97384.00;;;;5104968;28;20235;-85
2021/12/19 10:48:23;;;;;;;11.90;7.07;;;6.80;79.20;6.90;97386.00;;;;5105546;28;20198;-82
2021/12/19 10:50:59;;;;;;;12.10;6.80;;;6.80;78.70;6.80;97383.00;;;;5087171;28;20199;-83
2021/12/19 10:53:33;;;;;;;12.43;6.97;;;6.80;78.80;6.80;97369.00;;;;5096056;28;20194;-84
2021/12/19 10:56:05;;;;;;;11.97;7.00;;;6.80;78.70;6.80;97374.00;;;;5097936;28;20222;-82
2021/12/19 10:58:45;;;;;;;13.07;6.73;;;6.80;78.70;6.80;97364.00;;;;5095628;28;20195;-83
2021/12/19 11:01:18;;;;;;;13.67;8.53;;;6.80;78.60;6.90;97358.00;;;;5087032;28;20673;-82
2021/12/19 11:03:50;;;;;;;15.70;9.20;;;6.80;78.90;6.90;97350.00;;;;5078259;28;20219;-83
2021/12/19 11:06:45;;;;;;;10.53;7.10;;;6.80;78.60;6.90;97348.00;;;;5092652;28;20283;-84
2021/12/19 11:09:15;;;;;;;12.00;6.83;;;6.90;78.70;6.90;97336.00;;;;5062428;28;20197;-82
2021/12/19 11:11:51;;;;;;;11.43;6.83;;;6.90;78.60;6.90;97327.00;;;;5083720;28;20528;-82
2021/12/19 11:14:25;;;;;;;11.67;7.43;;;6.90;78.30;6.90;97321.00;;;;5083946;28;20580;-82
2021/12/19 11:16:55;;;;;;;20.43;11.23;;;6.90;78.80;6.90;97301.00;;;;5077272;28;20970;-82
2021/12/19 11:19:24;;;;;;;18.80;11.60;;;6.90;78.40;6.90;97311.00;;;;5079657;28;20199;-82
2021/12/19 11:21:51;;;;;;;18.30;12.67;;;6.90;78.50;7.00;97301.00;;;;5087383;28;20206;-82
2021/12/19 11:24:22;;;;;;;13.87;8.27;;;6.90;78.40;7.00;97299.00;;;;5099985;28;20297;-82
2021/12/19 11:26:58;;;;;;;11.63;7.43;;;6.90;78.30;7.00;97299.00;;;;5096885;28;20255;-82
2021/12/19 11:29:26;;;;;;;11.30;6.60;;;6.90;78.10;7.00;97305.00;;;;5087749;28;20203;-83
2021/12/19 11:31:57;;;;;;;13.97;7.13;;;6.90;78.30;7.00;97305.00;;;;5087053;28;20196;-83
2021/12/19 11:34:44;;;;;;;12.77;7.70;;;6.90;78.30;7.00;97288.00;;;;5085434;28;20223;-83
2021/12/19 11:37:17;;;;;;;11.43;7.03;;;6.90;78.40;7.00;97280.00;;;;5092386;28;20202;-83
2021/12/19 11:39:53;;;;;;;11.57;6.93;;;7.00;78.40;7.10;97286.00;;;;5091757;28;20270;-88
2021/12/19 11:42:31;;;;;;;11.03;7.13;;;7.00;78.50;7.10;97285.00;;;;5093221;28;20226;-83
2021/12/19 11:45:17;;;;;;;13.20;7.90;;;7.00;78.50;7.10;97280.00;;;;5089683;28;20211;-83
2021/12/19 11:47:49;;;;;;;11.73;7.17;;;7.00;78.60;7.20;97271.00;;;;5105398;28;20259;-82
2021/12/19 11:50:23;;;;;;;10.63;6.90;;;7.10;78.50;7.20;97270.00;;;;5101676;28;20201;-83